sensor_id;sensor_type;location;lat;lon;timestamp;pressure;altitude;pressure_sealevel;temperature;humidity
64294;BME280;50636;45.596;5.258;2023-04-19T00:00:38;98808.13;;;11.55;72.81
64294;BME280;50636;45.596;5.258;2023-04-19T00:03:08;98811.78;;;11.54;73.41
64294;BME280;50636;45.596;5.258;2023-04-19T00:05:34;98813.59;;;11.47;73.34
64294;BME280;50636;45.596;5.258;2023-04-19T00:08:00;98811.78;;;11.34;73.90
64294;BME280;50636;45.596;5.258;2023-04-19T00:10:25;98806.53;;;11.27;73.77
64294;BME280;50636;45.596;5.258;2023-04-19T00:12:51;98807.31;;;11.28;74.02
64294;BME280;50636;45.596;5.258;2023-04-19T00:15:17;98812.78;;;11.26;74.03
64294;BME280;50636;45.596;5.258;2023-04-19T00:17:43;98812.38;;;11.16;73.64
64294;BME280;50636;45.596;5.258;2023-04-19T00:20:09;98810.13;;;11.06;74.30
64294;BME280;50636;45.596;5.258;2023-04-19T00:22:35;98806.91;;;10.97;74.78
64294;BME280;50636;45.596;5.258;2023-04-19T00:25:01;98812.53;;;10.94;74.87
64294;BME280;50636;45.596;5.258;2023-04-19T00:27:27;98813.97;;;10.97;74.74
64294;BME280;50636;45.596;5.258;2023-04-19T00:29:52;98814.16;;;10.89;74.69
64294;BME280;50636;45.596;5.258;2023-04-19T00:32:18;98813.75;;;10.85;74.84
64294;BME280;50636;45.596;5.258;2023-04-19T00:34:44;98802.41;;;10.78;74.45
64294;BME280;50636;45.596;5.258;2023-04-19T00:37:10;98797.34;;;10.63;74.74
64294;BME280;50636;45.596;5.258;2023-04-19T00:39:36;98805.16;;;10.50;75.09
64294;BME280;50636;45.596;5.258;2023-04-19T00:42:02;98799.47;;;10.39;75.38
64294;BME280;50636;45.596;5.258;2023-04-19T00:44:27;98803.69;;;10.34;76.01
64294;BME280;50636;45.596;5.258;2023-04-19T00:46:55;98802.25;;;10.31;76.71
64294;BME280;50636;45.596;5.258;2023-04-19T00:49:21;98799.81;;;10.30;77.03
64294;BME280;50636;45.596;5.258;2023-04-19T00:51:49;98801.91;;;10.41;76.72
64294;BME280;50636;45.596;5.258;2023-04-19T00:54:16;98794.66;;;10.50;76.58
64294;BME280;50636;45.596;5.258;2023-04-19T00:56:43;98793.25;;;10.54;76.33
64294;BME280;50636;45.596;5.258;2023-04-19T00:59:10;98789.41;;;10.50;76.11
64294;BME280;50636;45.596;5.258;2023-04-19T01:01:37;98781.72;;;10.48;76.23
64294;BME280;50636;45.596;5.258;2023-04-19T01:04:04;98780.19;;;10.61;75.84
64294;BME280;50636;45.596;5.258;2023-04-19T01:06:30;98785.44;;;10.67;75.81
64294;BME280;50636;45.596;5.258;2023-04-19T01:08:57;98779.75;;;10.70;75.70
64294;BME280;50636;45.596;5.258;2023-04-19T01:11:23;98779.16;;;10.68;75.19
64294;BME280;50636;45.596;5.258;2023-04-19T01:13:49;98776.09;;;10.58;75.44
64294;BME280;50636;45.596;5.258;2023-04-19T01:16:15;98779.75;;;10.57;75.65
64294;BME280;50636;45.596;5.258;2023-04-19T01:18:40;98783.00;;;10.59;75.42
64294;BME280;50636;45.596;5.258;2023-04-19T01:21:07;98775.13;;;10.59;75.35
64294;BME280;50636;45.596;5.258;2023-04-19T01:23:33;98773.28;;;10.53;75.61
64294;BME280;50636;45.596;5.258;2023-04-19T01:26:01;98782.72;;;10.41;75.21
64294;BME280;50636;45.596;5.258;2023-04-19T01:28:26;98782.69;;;10.34;75.39
64294;BME280;50636;45.596;5.258;2023-04-19T01:30:52;98782.50;;;10.42;75.39
64294;BME280;50636;45.596;5.258;2023-04-19T01:33:22;98777.31;;;10.55;75.21
64294;BME280;50636;45.596;5.258;2023-04-19T01:35:48;98774.69;;;10.62;74.24
64294;BME280;50636;45.596;5.258;2023-04-19T01:38:15;98770.47;;;10.54;74.17
64294;BME280;50636;45.596;5.258;2023-04-19T01:40:41;98774.06;;;10.47;73.92
64294;BME280;50636;45.596;5.258;2023-04-19T01:43:07;98781.28;;;10.38;74.14
64294;BME280;50636;45.596;5.258;2023-04-19T01:45:33;98772.94;;;10.28;74.42
64294;BME280;50636;45.596;5.258;2023-04-19T01:48:01;98770.06;;;10.16;74.63
64294;BME280;50636;45.596;5.258;2023-04-19T01:50:29;98773.69;;;10.08;75.19
64294;BME280;50636;45.596;5.258;2023-04-19T01:52:55;98771.69;;;10.10;75.56
64294;BME280;50636;45.596;5.258;2023-04-19T01:55:21;98770.66;;;10.11;75.34
64294;BME280;50636;45.596;5.258;2023-04-19T01:57:46;98768.91;;;10.18;75.42
64294;BME280;50636;45.596;5.258;2023-04-19T02:00:12;98761.03;;;10.18;74.93
64294;BME280;50636;45.596;5.258;2023-04-19T02:02:39;98760.78;;;10.07;74.62
64294;BME280;50636;45.596;5.258;2023-04-19T02:05:06;98765.75;;;9.95;75.00
64294;BME280;50636;45.596;5.258;2023-04-19T02:07:32;98772.38;;;9.84;75.39
64294;BME280;50636;45.596;5.258;2023-04-19T02:09:58;98768.44;;;9.73;75.76
64294;BME280;50636;45.596;5.258;2023-04-19T02:12:27;98779.69;;;9.67;75.76
64294;BME280;50636;45.596;5.258;2023-04-19T02:14:59;98780.66;;;9.59;76.28
64294;BME280;50636;45.596;5.258;2023-04-19T02:17:26;98778.00;;;9.53;76.77
64294;BME280;50636;45.596;5.258;2023-04-19T02:19:52;98777.19;;;9.52;76.85
64294;BME280;50636;45.596;5.258;2023-04-19T02:22:18;98782.25;;;9.54;77.13
64294;BME280;50636;45.596;5.258;2023-04-19T02:24:44;98776.09;;;9.68;76.98
64294;BME280;50636;45.596;5.258;2023-04-19T02:27:10;98774.53;;;9.74;76.69
64294;BME280;50636;45.596;5.258;2023-04-19T02:29:37;98781.03;;;9.85;76.66
64294;BME280;50636;45.596;5.258;2023-04-19T02:32:03;98776.06;;;9.96;76.81
64294;BME280;50636;45.596;5.258;2023-04-19T02:34:33;98774.00;;;9.92;75.72
64294;BME280;50636;45.596;5.258;2023-04-19T02:36:59;98771.75;;;9.82;75.57
64294;BME280;50636;45.596;5.258;2023-04-19T02:39:25;98774.47;;;9.67;75.46
64294;BME280;50636;45.596;5.258;2023-04-19T02:41:51;98775.09;;;9.41;75.83
64294;BME280;50636;45.596;5.258;2023-04-19T02:44:17;98778.56;;;9.20;76.31
64294;BME280;50636;45.596;5.258;2023-04-19T02:46:49;98780.56;;;9.18;77.47
64294;BME280;50636;45.596;5.258;2023-04-19T02:49:15;98780.63;;;9.25;77.49
64294;BME280;50636;45.596;5.258;2023-04-19T02:51:41;98778.00;;;9.25;77.24
64294;BME280;50636;45.596;5.258;2023-04-19T02:54:07;98774.31;;;9.19;77.48
64294;BME280;50636;45.596;5.258;2023-04-19T02:56:32;98774.00;;;9.29;77.40
64294;BME280;50636;45.596;5.258;2023-04-19T02:59:01;98772.78;;;9.31;76.55
64294;BME280;50636;45.596;5.258;2023-04-19T03:01:27;98781.38;;;9.18;76.59
64294;BME280;50636;45.596;5.258;2023-04-19T03:03:53;98778.88;;;9.10;76.97
64294;BME280;50636;45.596;5.258;2023-04-19T03:06:18;98778.00;;;9.03;77.37
64294;BME280;50636;45.596;5.258;2023-04-19T03:08:44;98788.81;;;8.93;77.43
64294;BME280;50636;45.596;5.258;2023-04-19T03:11:11;98784.75;;;8.91;77.83
64294;BME280;50636;45.596;5.258;2023-04-19T03:13:37;98784.13;;;8.89;77.67
64294;BME280;50636;45.596;5.258;2023-04-19T03:16:05;98785.38;;;8.93;77.89
64294;BME280;50636;45.596;5.258;2023-04-19T03:18:31;98781.75;;;8.94;77.66
64294;BME280;50636;45.596;5.258;2023-04-19T03:20:57;98794.84;;;8.94;77.52
64294;BME280;50636;45.596;5.258;2023-04-19T03:23:22;98796.66;;;8.93;77.62
64294;BME280;50636;45.596;5.258;2023-04-19T03:25:48;98789.66;;;9.00;77.44
64294;BME280;50636;45.596;5.258;2023-04-19T03:28:14;98788.47;;;9.03;77.37
64294;BME280;50636;45.596;5.258;2023-04-19T03:30:40;98784.94;;;9.11;76.80
64294;BME280;50636;45.596;5.258;2023-04-19T03:33:05;98778.25;;;9.08;76.78
64294;BME280;50636;45.596;5.258;2023-04-19T03:35:31;98787.72;;;9.09;76.06
64294;BME280;50636;45.596;5.258;2023-04-19T03:37:57;98790.69;;;8.99;76.23
64294;BME280;50636;45.596;5.258;2023-04-19T03:40:23;98792.41;;;8.92;76.70
64294;BME280;50636;45.596;5.258;2023-04-19T03:42:48;98789.53;;;8.87;76.67
64294;BME280;50636;45.596;5.258;2023-04-19T03:45:14;98793.97;;;8.87;76.95
64294;BME280;50636;45.596;5.258;2023-04-19T03:47:40;98789.16;;;8.90;76.56
64294;BME280;50636;45.596;5.258;2023-04-19T03:50:06;98791.72;;;8.84;76.58
64294;BME280;50636;45.596;5.258;2023-04-19T03:52:32;98784.88;;;8.83;76.50
64294;BME280;50636;45.596;5.258;2023-04-19T03:54:58;98780.81;;;8.80;76.49
64294;BME280;50636;45.596;5.258;2023-04-19T03:57:23;98785.78;;;8.75;76.76
64294;BME280;50636;45.596;5.258;2023-04-19T03:59:49;98784.28;;;8.87;77.04
64294;BME280;50636;45.596;5.258;2023-04-19T04:02:15;98778.88;;;9.10;76.73
64294;BME280;50636;45.596;5.258;2023-04-19T04:04:40;98780.13;;;9.14;76.01
64294;BME280;50636;45.596;5.258;2023-04-19T04:07:06;98782.56;;;9.16;75.32
64294;BME280;50636;45.596;5.258;2023-04-19T04:09:31;98788.47;;;9.03;75.28
64294;BME280;50636;45.596;5.258;2023-04-19T04:11:57;98771.53;;;8.99;76.02
64294;BME280;50636;45.596;5.258;2023-04-19T04:14:23;98781.94;;;8.92;75.91
64294;BME280;50636;45.596;5.258;2023-04-19T04:16:49;98785.94;;;8.88;75.80
64294;BME280;50636;45.596;5.258;2023-04-19T04:19:15;98780.63;;;8.82;75.35
64294;BME280;50636;45.596;5.258;2023-04-19T04:21:40;98783.22;;;8.60;75.67
64294;BME280;50636;45.596;5.258;2023-04-19T04:24:06;98783.53;;;8.50;76.28
64294;BME280;50636;45.596;5.258;2023-04-19T04:26:32;98787.03;;;8.57;76.72
64294;BME280;50636;45.596;5.258;2023-04-19T04:29:00;98799.09;;;8.58;76.22
64294;BME280;50636;45.596;5.258;2023-04-19T04:31:28;98794.06;;;8.57;76.26
64294;BME280;50636;45.596;5.258;2023-04-19T04:33:53;98795.34;;;8.46;76.68
64294;BME280;50636;45.596;5.258;2023-04-19T04:36:20;98803.09;;;8.39;77.29
64294;BME280;50636;45.596;5.258;2023-04-19T04:38:46;98804.00;;;8.47;77.10
64294;BME280;50636;45.596;5.258;2023-04-19T04:41:12;98806.72;;;8.53;76.93
64294;BME280;50636;45.596;5.258;2023-04-19T04:43:37;98808.44;;;8.46;77.24
64294;BME280;50636;45.596;5.258;2023-04-19T04:46:04;98807.19;;;8.42;76.96
64294;BME280;50636;45.596;5.258;2023-04-19T04:48:29;98805.59;;;8.33;76.86
64294;BME280;50636;45.596;5.258;2023-04-19T04:50:56;98801.75;;;8.29;77.10
64294;BME280;50636;45.596;5.258;2023-04-19T04:53:24;98810.22;;;8.31;77.49
64294;BME280;50636;45.596;5.258;2023-04-19T04:55:50;98802.22;;;8.47;77.62
64294;BME280;50636;45.596;5.258;2023-04-19T04:58:16;98810.81;;;8.63;77.60
64294;BME280;50636;45.596;5.258;2023-04-19T05:00:42;98811.97;;;8.75;75.95
64294;BME280;50636;45.596;5.258;2023-04-19T05:03:08;98817.75;;;8.70;76.09
64294;BME280;50636;45.596;5.258;2023-04-19T05:05:34;98814.84;;;8.80;75.86
64294;BME280;50636;45.596;5.258;2023-04-19T05:07:59;98809.66;;;8.87;75.40
64294;BME280;50636;45.596;5.258;2023-04-19T05:10:25;98808.97;;;9.21;74.83
64294;BME280;50636;45.596;5.258;2023-04-19T05:12:51;98801.38;;;9.83;73.13
64294;BME280;50636;45.596;5.258;2023-04-19T05:15:17;98800.06;;;10.42;70.67
64294;BME280;50636;45.596;5.258;2023-04-19T05:17:42;98798.59;;;10.94;68.82
64294;BME280;50636;45.596;5.258;2023-04-19T05:20:08;98796.41;;;11.64;66.24
64294;BME280;50636;45.596;5.258;2023-04-19T05:22:34;98794.47;;;12.18;64.55
64294;BME280;50636;45.596;5.258;2023-04-19T05:25:00;98799.94;;;12.68;61.86
64294;BME280;50636;45.596;5.258;2023-04-19T05:27:26;98802.53;;;13.07;60.71
64294;BME280;50636;45.596;5.258;2023-04-19T05:29:52;98795.03;;;13.35;59.11
64294;BME280;50636;45.596;5.258;2023-04-19T05:32:18;98798.84;;;13.65;58.39
64294;BME280;50636;45.596;5.258;2023-04-19T05:34:43;98797.78;;;13.91;57.36
64294;BME280;50636;45.596;5.258;2023-04-19T05:37:09;98793.84;;;14.18;56.57
64294;BME280;50636;45.596;5.258;2023-04-19T05:39:35;98802.03;;;14.29;56.16
64294;BME280;50636;45.596;5.258;2023-04-19T05:42:01;98800.97;;;14.48;55.47
64294;BME280;50636;45.596;5.258;2023-04-19T05:44:26;98804.34;;;14.74;54.81
64294;BME280;50636;45.596;5.258;2023-04-19T05:46:52;98801.78;;;14.97;54.28
64294;BME280;50636;45.596;5.258;2023-04-19T05:49:17;98796.44;;;14.86;54.15
64294;BME280;50636;45.596;5.258;2023-04-19T05:51:43;98798.13;;;14.50;55.01
64294;BME280;50636;45.596;5.258;2023-04-19T05:54:09;98797.16;;;14.44;55.77
64294;BME280;50636;45.596;5.258;2023-04-19T05:56:37;98798.16;;;14.80;54.33
64294;BME280;50636;45.596;5.258;2023-04-19T05:59:03;98800.53;;;15.12;53.23
64294;BME280;50636;45.596;5.258;2023-04-19T06:01:29;98795.97;;;15.43;51.79
64294;BME280;50636;45.596;5.258;2023-04-19T06:03:54;98797.13;;;15.70;50.54
64294;BME280;50636;45.596;5.258;2023-04-19T06:06:21;98790.84;;;16.24;49.66
64294;BME280;50636;45.596;5.258;2023-04-19T06:08:48;98793.50;;;16.93;48.70
64294;BME280;50636;45.596;5.258;2023-04-19T06:11:13;98791.72;;;17.66;46.44
64294;BME280;50636;45.596;5.258;2023-04-19T06:13:39;98786.72;;;18.53;44.98
64294;BME280;50636;45.596;5.258;2023-04-19T06:16:05;98785.69;;;19.08;42.79
64294;BME280;50636;45.596;5.258;2023-04-19T06:18:32;98778.56;;;18.82;42.53
64294;BME280;50636;45.596;5.258;2023-04-19T06:20:58;98790.66;;;18.72;42.75
64294;BME280;50636;45.596;5.258;2023-04-19T06:23:23;98785.47;;;18.83;43.00
64294;BME280;50636;45.596;5.258;2023-04-19T06:25:50;98782.03;;;18.87;42.73
64294;BME280;50636;45.596;5.258;2023-04-19T06:28:15;98783.88;;;19.14;42.42
64294;BME280;50636;45.596;5.258;2023-04-19T06:30:41;98789.69;;;19.11;42.03
64294;BME280;50636;45.596;5.258;2023-04-19T06:33:07;98788.75;;;18.95;42.34
64294;BME280;50636;45.596;5.258;2023-04-19T06:35:32;98783.56;;;19.43;42.71
64294;BME280;50636;45.596;5.258;2023-04-19T06:37:58;98781.84;;;20.11;40.95
64294;BME280;50636;45.596;5.258;2023-04-19T06:40:25;98790.78;;;20.58;40.33
64294;BME280;50636;45.596;5.258;2023-04-19T06:42:51;98789.28;;;21.03;39.09
64294;BME280;50636;45.596;5.258;2023-04-19T06:45:17;98791.69;;;21.61;38.88
64294;BME280;50636;45.596;5.258;2023-04-19T06:47:43;98786.09;;;22.38;38.02
64294;BME280;50636;45.596;5.258;2023-04-19T06:50:09;98791.31;;;23.38;36.87
64294;BME280;50636;45.596;5.258;2023-04-19T06:52:35;98788.03;;;23.99;35.65
64294;BME280;50636;45.596;5.258;2023-04-19T06:55:01;98789.06;;;24.03;35.70
64294;BME280;50636;45.596;5.258;2023-04-19T06:57:27;98779.78;;;24.15;34.40
64294;BME280;50636;45.596;5.258;2023-04-19T06:59:53;98780.97;;;24.51;34.66
64294;BME280;50636;45.596;5.258;2023-04-19T07:02:20;98779.44;;;24.83;33.95
64294;BME280;50636;45.596;5.258;2023-04-19T07:04:45;98776.94;;;25.06;33.70
64294;BME280;50636;45.596;5.258;2023-04-19T07:07:12;98778.34;;;25.50;32.59
64294;BME280;50636;45.596;5.258;2023-04-19T07:09:38;98768.22;;;26.30;31.45
64294;BME280;50636;45.596;5.258;2023-04-19T07:12:05;98766.25;;;27.48;29.54
64294;BME280;50636;45.596;5.258;2023-04-19T07:14:30;98761.00;;;27.83;28.37
64294;BME280;50636;45.596;5.258;2023-04-19T07:16:56;98762.66;;;27.62;28.62
64294;BME280;50636;45.596;5.258;2023-04-19T07:19:22;98762.66;;;28.11;28.54
64294;BME280;50636;45.596;5.258;2023-04-19T07:21:47;98759.38;;;29.01;27.73
64294;BME280;50636;45.596;5.258;2023-04-19T07:24:13;98765.75;;;29.99;26.53
64294;BME280;50636;45.596;5.258;2023-04-19T07:26:39;98757.22;;;30.60;25.93
64294;BME280;50636;45.596;5.258;2023-04-19T07:29:04;98753.28;;;31.24;25.16
64294;BME280;50636;45.596;5.258;2023-04-19T07:31:30;98750.75;;;31.77;24.03
64294;BME280;50636;45.596;5.258;2023-04-19T07:33:56;98756.19;;;32.14;23.32
64294;BME280;50636;45.596;5.258;2023-04-19T07:36:21;98750.81;;;32.42;23.33
64294;BME280;50636;45.596;5.258;2023-04-19T07:38:47;98751.78;;;32.50;23.02
64294;BME280;50636;45.596;5.258;2023-04-19T07:41:13;98750.63;;;32.23;23.30
64294;BME280;50636;45.596;5.258;2023-04-19T07:43:38;98756.38;;;32.34;23.07
64294;BME280;50636;45.596;5.258;2023-04-19T07:46:12;98761.03;;;32.90;22.72
64294;BME280;50636;45.596;5.258;2023-04-19T07:48:38;98758.59;;;33.13;22.15
64294;BME280;50636;45.596;5.258;2023-04-19T07:51:14;98765.06;;;33.24;21.84
64294;BME280;50636;45.596;5.258;2023-04-19T07:53:45;98759.59;;;33.08;22.04
64294;BME280;50636;45.596;5.258;2023-04-19T07:56:11;98756.56;;;33.26;21.70
64294;BME280;50636;45.596;5.258;2023-04-19T07:58:37;98765.00;;;33.52;20.95
64294;BME280;50636;45.596;5.258;2023-04-19T08:01:04;98763.97;;;33.57;21.36
64294;BME280;50636;45.596;5.258;2023-04-19T08:03:33;98759.00;;;33.94;21.21
64294;BME280;50636;45.596;5.258;2023-04-19T08:06:02;98757.59;;;34.16;21.02
64294;BME280;50636;45.596;5.258;2023-04-19T08:08:30;98765.72;;;33.97;20.77
64294;BME280;50636;45.596;5.258;2023-04-19T08:10:56;98752.97;;;34.01;20.96
64294;BME280;50636;45.596;5.258;2023-04-19T08:13:21;98753.31;;;33.99;20.83
64294;BME280;50636;45.596;5.258;2023-04-19T08:15:48;98753.81;;;34.05;20.82
64294;BME280;50636;45.596;5.258;2023-04-19T08:18:13;98747.56;;;34.20;20.78
64294;BME280;50636;45.596;5.258;2023-04-19T08:20:39;98745.00;;;34.28;20.56
64294;BME280;50636;45.596;5.258;2023-04-19T08:23:07;98745.13;;;34.35;20.19
64294;BME280;50636;45.596;5.258;2023-04-19T08:25:33;98745.28;;;34.07;21.12
64294;BME280;50636;45.596;5.258;2023-04-19T08:27:59;98744.06;;;34.04;20.84
64294;BME280;50636;45.596;5.258;2023-04-19T08:30:25;98739.25;;;33.97;20.96
64294;BME280;50636;45.596;5.258;2023-04-19T08:32:51;98740.56;;;34.03;20.93
64294;BME280;50636;45.596;5.258;2023-04-19T08:35:16;98736.09;;;33.95;20.60
64294;BME280;50636;45.596;5.258;2023-04-19T08:37:42;98742.09;;;33.53;21.18
64294;BME280;50636;45.596;5.258;2023-04-19T08:40:08;98743.50;;;33.31;21.87
64294;BME280;50636;45.596;5.258;2023-04-19T08:42:35;98734.06;;;32.97;21.84
64294;BME280;50636;45.596;5.258;2023-04-19T08:45:02;98725.69;;;32.90;22.57
64294;BME280;50636;45.596;5.258;2023-04-19T08:47:34;98741.59;;;33.03;22.01
64294;BME280;50636;45.596;5.258;2023-04-19T08:50:04;98729.66;;;33.20;22.07
64294;BME280;50636;45.596;5.258;2023-04-19T08:52:33;98724.75;;;32.98;22.15
64294;BME280;50636;45.596;5.258;2023-04-19T08:55:06;98720.72;;;32.92;22.05
64294;BME280;50636;45.596;5.258;2023-04-19T08:57:34;98729.69;;;32.52;22.79
64294;BME280;50636;45.596;5.258;2023-04-19T09:00:00;98723.22;;;32.28;22.96
64294;BME280;50636;45.596;5.258;2023-04-19T09:02:26;98715.81;;;32.41;22.47
64294;BME280;50636;45.596;5.258;2023-04-19T09:08:25;98718.91;;;33.12;21.98
64294;BME280;50636;45.596;5.258;2023-04-19T09:10:59;98722.88;;;33.46;22.28
64294;BME280;50636;45.596;5.258;2023-04-19T09:13:25;98705.66;;;32.94;21.74
64294;BME280;50636;45.596;5.258;2023-04-19T09:15:52;98712.00;;;33.30;21.52
64294;BME280;50636;45.596;5.258;2023-04-19T09:18:18;98708.06;;;34.30;19.99
64294;BME280;50636;45.596;5.258;2023-04-19T09:20:45;98706.69;;;34.79;19.11
64294;BME280;50636;45.596;5.258;2023-04-19T09:23:16;98701.44;;;34.51;19.04
64294;BME280;50636;45.596;5.258;2023-04-19T09:26:01;98708.41;;;34.48;19.28
64294;BME280;50636;45.596;5.258;2023-04-19T09:28:29;98699.03;;;34.46;19.80
64294;BME280;50636;45.596;5.258;2023-04-19T09:30:55;98694.16;;;34.00;19.43
64294;BME280;50636;45.596;5.258;2023-04-19T09:33:31;98696.94;;;32.89;20.48
64294;BME280;50636;45.596;5.258;2023-04-19T09:35:58;98690.94;;;33.27;20.55
64294;BME280;50636;45.596;5.258;2023-04-19T09:38:24;98694.94;;;34.00;20.03
64294;BME280;50636;45.596;5.258;2023-04-19T09:40:50;98690.16;;;34.29;19.49
64294;BME280;50636;45.596;5.258;2023-04-19T09:43:25;98677.50;;;34.60;19.69
64294;BME280;50636;45.596;5.258;2023-04-19T09:45:51;98690.59;;;34.93;19.11
64294;BME280;50636;45.596;5.258;2023-04-19T09:48:16;98683.63;;;34.96;19.13
64294;BME280;50636;45.596;5.258;2023-04-19T09:50:54;98682.59;;;35.04;19.04
64294;BME280;50636;45.596;5.258;2023-04-19T09:53:21;98674.03;;;35.29;18.80
64294;BME280;50636;45.596;5.258;2023-04-19T09:55:47;98676.41;;;35.57;18.84
64294;BME280;50636;45.596;5.258;2023-04-19T09:58:17;98673.81;;;36.21;18.00
64294;BME280;50636;45.596;5.258;2023-04-19T10:00:43;98667.44;;;35.83;17.75
64294;BME280;50636;45.596;5.258;2023-04-19T10:03:13;98668.16;;;35.27;18.07
64294;BME280;50636;45.596;5.258;2023-04-19T10:05:40;98661.72;;;35.15;18.16
64294;BME280;50636;45.596;5.258;2023-04-19T10:08:07;98671.47;;;35.39;17.81
64294;BME280;50636;45.596;5.258;2023-04-19T10:10:34;98666.69;;;35.33;17.93
64294;BME280;50636;45.596;5.258;2023-04-19T10:13:02;98663.97;;;34.87;18.08
64294;BME280;50636;45.596;5.258;2023-04-19T10:15:30;98664.16;;;34.74;18.35
64294;BME280;50636;45.596;5.258;2023-04-19T10:17:56;98659.00;;;34.69;18.79
64294;BME280;50636;45.596;5.258;2023-04-19T10:20:26;98651.31;;;34.98;18.31
64294;BME280;50636;45.596;5.258;2023-04-19T10:22:55;98656.69;;;34.94;18.18
64294;BME280;50636;45.596;5.258;2023-04-19T10:25:27;98648.44;;;34.91;17.99
64294;BME280;50636;45.596;5.258;2023-04-19T10:27:54;98651.28;;;34.75;18.41
64294;BME280;50636;45.596;5.258;2023-04-19T10:30:21;98649.97;;;34.26;19.03
64294;BME280;50636;45.596;5.258;2023-04-19T10:32:59;98652.63;;;34.03;19.15
64294;BME280;50636;45.596;5.258;2023-04-19T10:35:33;98647.78;;;33.77;19.83
64294;BME280;50636;45.596;5.258;2023-04-19T10:38:06;98649.09;;;34.02;19.49
64294;BME280;50636;45.596;5.258;2023-04-19T10:40:59;98654.09;;;34.00;19.46
64294;BME280;50636;45.596;5.258;2023-04-19T10:43:27;98645.03;;;33.93;19.50
64294;BME280;50636;45.596;5.258;2023-04-19T10:45:53;98646.09;;;34.08;19.33
64294;BME280;50636;45.596;5.258;2023-04-19T10:51:11;98642.75;;;34.76;19.10
64294;BME280;50636;45.596;5.258;2023-04-19T10:54:00;98637.53;;;34.91;18.71
64294;BME280;50636;45.596;5.258;2023-04-19T11:01:44;98624.44;;;33.95;19.10
64294;BME280;50636;45.596;5.258;2023-04-19T11:04:12;98620.63;;;33.80;19.19
64294;BME280;50636;45.596;5.258;2023-04-19T11:09:27;98612.75;;;34.53;19.08
64294;BME280;50636;45.596;5.258;2023-04-19T11:11:57;98606.63;;;34.60;18.90
64294;BME280;50636;45.596;5.258;2023-04-19T11:14:23;98599.78;;;34.93;18.63
64294;BME280;50636;45.596;5.258;2023-04-19T11:16:49;98603.97;;;34.64;18.94
64294;BME280;50636;45.596;5.258;2023-04-19T11:19:16;98600.31;;;34.56;19.68
64294;BME280;50636;45.596;5.258;2023-04-19T11:21:44;98592.78;;;34.69;19.32
64294;BME280;50636;45.596;5.258;2023-04-19T11:24:10;98588.31;;;34.37;19.26
64294;BME280;50636;45.596;5.258;2023-04-19T11:26:36;98580.81;;;34.11;19.09
64294;BME280;50636;45.596;5.258;2023-04-19T11:29:03;98577.75;;;33.58;19.91
64294;BME280;50636;45.596;5.258;2023-04-19T11:31:33;98581.50;;;33.34;19.83
64294;BME280;50636;45.596;5.258;2023-04-19T11:33:59;98571.22;;;33.43;20.35
64294;BME280;50636;45.596;5.258;2023-04-19T11:36:26;98571.75;;;33.68;19.96
64294;BME280;50636;45.596;5.258;2023-04-19T11:38:52;98565.16;;;34.08;19.20
64294;BME280;50636;45.596;5.258;2023-04-19T11:41:18;98561.25;;;33.86;19.68
64294;BME280;50636;45.596;5.258;2023-04-19T11:43:45;98558.72;;;33.22;20.27
64294;BME280;50636;45.596;5.258;2023-04-19T11:46:12;98559.28;;;32.96;21.23
64294;BME280;50636;45.596;5.258;2023-04-19T11:48:51;98556.75;;;33.58;20.76
64294;BME280;50636;45.596;5.258;2023-04-19T11:51:17;98554.06;;;33.78;20.46
64294;BME280;50636;45.596;5.258;2023-04-19T11:53:43;98551.78;;;33.80;20.83
64294;BME280;50636;45.596;5.258;2023-04-19T11:56:09;98547.13;;;33.80;21.05
64294;BME280;50636;45.596;5.258;2023-04-19T11:58:40;98549.31;;;33.20;21.23
64294;BME280;50636;45.596;5.258;2023-04-19T12:01:11;98538.31;;;33.13;21.44
64294;BME280;50636;45.596;5.258;2023-04-19T12:03:50;98542.66;;;33.53;20.69
64294;BME280;50636;45.596;5.258;2023-04-19T12:06:24;98530.59;;;33.89;20.72
64294;BME280;50636;45.596;5.258;2023-04-19T12:08:52;98529.56;;;33.97;20.62
64294;BME280;50636;45.596;5.258;2023-04-19T12:11:20;98526.78;;;33.74;20.89
64294;BME280;50636;45.596;5.258;2023-04-19T12:13:47;98525.56;;;33.91;20.65
64294;BME280;50636;45.596;5.258;2023-04-19T12:16:13;98512.75;;;33.72;21.33
64294;BME280;50636;45.596;5.258;2023-04-19T12:21:23;98509.47;;;34.48;20.57
64294;BME280;50636;45.596;5.258;2023-04-19T12:23:53;98513.78;;;34.49;20.75
64294;BME280;50636;45.596;5.258;2023-04-19T12:26:18;98504.97;;;34.36;20.41
64294;BME280;50636;45.596;5.258;2023-04-19T12:28:44;98507.59;;;34.29;20.08
64294;BME280;50636;45.596;5.258;2023-04-19T12:31:10;98503.31;;;34.09;20.20
64294;BME280;50636;45.596;5.258;2023-04-19T12:33:35;98501.00;;;33.88;20.50
64294;BME280;50636;45.596;5.258;2023-04-19T12:36:01;98496.31;;;33.49;20.45
64294;BME280;50636;45.596;5.258;2023-04-19T12:38:27;98495.13;;;33.11;21.03
64294;BME280;50636;45.596;5.258;2023-04-19T12:40:52;98493.75;;;32.86;20.71
64294;BME280;50636;45.596;5.258;2023-04-19T12:43:18;98496.41;;;32.50;20.95
64294;BME280;50636;45.596;5.258;2023-04-19T12:45:44;98502.50;;;32.15;21.71
64294;BME280;50636;45.596;5.258;2023-04-19T12:48:09;98489.81;;;32.19;21.45
64294;BME280;50636;45.596;5.258;2023-04-19T12:50:35;98479.31;;;32.18;21.77
64294;BME280;50636;45.596;5.258;2023-04-19T12:53:01;98480.63;;;31.80;22.13
64294;BME280;50636;45.596;5.258;2023-04-19T12:55:27;98478.25;;;31.38;23.13
64294;BME280;50636;45.596;5.258;2023-04-19T12:57:53;98469.56;;;31.32;23.18
64294;BME280;50636;45.596;5.258;2023-04-19T13:00:18;98471.16;;;31.21;23.70
64294;BME280;50636;45.596;5.258;2023-04-19T13:02:44;98462.97;;;31.17;23.65
64294;BME280;50636;45.596;5.258;2023-04-19T13:05:12;98462.09;;;31.01;23.42
64294;BME280;50636;45.596;5.258;2023-04-19T13:07:38;98455.19;;;30.54;24.05
64294;BME280;50636;45.596;5.258;2023-04-19T13:10:05;98448.81;;;30.25;24.19
64294;BME280;50636;45.596;5.258;2023-04-19T13:12:30;98439.09;;;30.00;24.65
64294;BME280;50636;45.596;5.258;2023-04-19T13:14:56;98436.25;;;29.63;24.96
64294;BME280;50636;45.596;5.258;2023-04-19T13:17:22;98439.78;;;29.21;24.94